createdAt,value
2022-12-04T00:01:24.955Z,35.39
2022-12-04T00:03:57.146Z,35.39
2022-12-04T00:06:25.332Z,35.20
2022-12-04T00:08:55.256Z,35.45
2022-12-04T00:11:26.464Z,35.16
2022-12-04T00:13:54.631Z,35.28
2022-12-04T00:16:25.351Z,35.21
2022-12-04T00:18:54.543Z,35.33
2022-12-04T00:21:24.565Z,35.35
2022-12-04T00:23:53.245Z,35.48
2022-12-04T00:26:24.802Z,35.32
2022-12-04T00:28:53.480Z,35.36
2022-12-04T00:31:23.922Z,35.32
2022-12-04T00:33:52.485Z,35.43
2022-12-04T00:36:23.282Z,35.32
2022-12-04T00:38:51.243Z,35.58
2022-12-04T00:41:21.040Z,35.54
2022-12-04T00:43:51.009Z,35.17
2022-12-04T00:46:19.137Z,35.09
2022-12-04T00:48:48.104Z,35.25
2022-12-04T00:51:18.270Z,34.80
2022-12-04T00:53:46.992Z,34.92
2022-12-04T00:56:18.537Z,34.91
2022-12-04T00:58:47.171Z,34.75
2022-12-04T01:01:17.939Z,35.09
2022-12-04T01:03:46.522Z,34.63
2022-12-04T01:06:23.135Z,34.64
2022-12-04T01:08:51.373Z,34.52
2022-12-04T01:11:20.051Z,34.34
2022-12-04T01:13:51.359Z,34.45
2022-12-04T01:16:23.518Z,34.35
2022-12-04T01:18:51.588Z,34.40
2022-12-04T01:21:20.174Z,34.24
2022-12-04T01:23:48.240Z,34.04
2022-12-04T01:26:16.494Z,34.14
2022-12-04T01:28:44.459Z,34.00
2022-12-04T01:31:16.920Z,34.19
2022-12-04T01:33:47.177Z,33.98
2022-12-04T01:36:17.413Z,34.00
2022-12-04T01:38:46.154Z,33.90
2022-12-04T01:41:15.903Z,33.87
2022-12-04T01:43:44.211Z,33.98
2022-12-04T01:46:12.690Z,33.94
2022-12-04T01:48:47.842Z,33.80
2022-12-04T01:51:20.385Z,33.73
2022-12-04T01:53:53.124Z,33.73
2022-12-04T01:56:27.505Z,33.69
2022-12-04T01:58:58.748Z,33.63
2022-12-04T02:01:30.351Z,33.64
2022-12-04T02:04:03.411Z,33.56
2022-12-04T02:06:31.381Z,33.45
2022-12-04T02:08:59.273Z,33.44
2022-12-04T02:11:37.507Z,33.54
2022-12-04T02:14:15.393Z,33.47
2022-12-04T02:16:49.662Z,33.29
2022-12-04T02:19:41.958Z,33.46
2022-12-04T02:22:22.671Z,33.26
2022-12-04T02:24:58.480Z,33.29
2022-12-04T02:27:46.366Z,33.18
2022-12-04T02:30:15.742Z,33.17
2022-12-04T02:32:47.633Z,33.15
2022-12-04T02:35:22.767Z,33.05
2022-12-04T02:37:55.654Z,33.08
2022-12-04T02:40:31.071Z,33.17
2022-12-04T02:43:09.053Z,33.06
2022-12-04T02:45:42.870Z,33.05
2022-12-04T02:48:13.101Z,33.02
2022-12-04T02:50:42.119Z,32.92
2022-12-04T02:53:13.643Z,33.13
2022-12-04T02:55:45.307Z,32.88
2022-12-04T02:58:18.305Z,32.94
2022-12-04T03:00:49.012Z,32.94
2022-12-04T03:03:21.769Z,33.11
2022-12-04T03:05:56.800Z,33.07
2022-12-04T03:08:30.182Z,32.94
2022-12-04T03:11:01.813Z,32.93
2022-12-04T03:13:37.179Z,32.75
2022-12-04T03:16:11.791Z,32.83
2022-12-04T03:18:46.332Z,32.70
2022-12-04T03:21:19.145Z,32.88
2022-12-04T03:23:51.873Z,32.57
2022-12-04T03:26:27.147Z,32.82
2022-12-04T03:29:01.880Z,32.88
2022-12-04T03:31:36.400Z,32.80
2022-12-04T03:34:07.380Z,32.56
2022-12-04T03:36:39.177Z,32.64
2022-12-04T03:39:16.177Z,32.66
2022-12-04T03:41:56.096Z,32.70
2022-12-04T03:44:28.891Z,32.69
2022-12-04T03:47:00.916Z,32.59
2022-12-04T03:49:38.339Z,32.57
2022-12-04T03:52:17.282Z,32.71
2022-12-04T03:54:50.551Z,32.64
2022-12-04T03:57:26.028Z,32.53
2022-12-04T04:00:01.544Z,32.73
2022-12-04T04:02:34.129Z,32.58
2022-12-04T04:05:02.788Z,32.63
2022-12-04T04:07:36.256Z,32.61
2022-12-04T04:10:11.806Z,32.66
2022-12-04T04:12:44.832Z,32.56
2022-12-04T04:15:34.138Z,32.48
2022-12-04T04:18:20.906Z,32.43
2022-12-04T04:21:13.619Z,32.47
2022-12-04T04:24:02.011Z,32.49
2022-12-04T04:26:37.618Z,32.55
2022-12-04T04:29:05.515Z,32.55
2022-12-04T04:31:41.133Z,32.68
2022-12-04T04:34:19.200Z,32.60
2022-12-04T04:36:55.882Z,32.33
2022-12-04T04:39:32.232Z,32.49
2022-12-04T04:42:05.844Z,32.32
2022-12-04T04:44:41.179Z,32.58
2022-12-04T04:47:16.574Z,32.33
2022-12-04T04:49:47.343Z,32.40
2022-12-04T04:52:17.178Z,32.44
2022-12-04T04:54:46.089Z,32.26
2022-12-04T04:57:14.019Z,32.50
2022-12-04T04:59:41.968Z,32.51
2022-12-04T05:02:13.454Z,32.43
2022-12-04T05:04:41.452Z,32.39
2022-12-04T05:07:09.357Z,32.40
2022-12-04T05:09:41.201Z,32.45
2022-12-04T05:12:09.691Z,32.39
2022-12-04T05:14:37.695Z,32.29
2022-12-04T05:17:10.854Z,32.26
2022-12-04T05:19:57.882Z,32.25
2022-12-04T05:22:27.989Z,32.41
2022-12-04T05:24:56.577Z,32.57
2022-12-04T05:27:27.882Z,32.45
2022-12-04T05:29:57.341Z,32.34
2022-12-04T05:32:27.890Z,32.28
2022-12-04T05:34:58.203Z,32.34
2022-12-04T05:37:26.623Z,32.30
2022-12-04T05:39:55.139Z,32.29
2022-12-04T05:42:23.386Z,32.47
2022-12-04T05:44:51.412Z,32.40
2022-12-04T05:47:19.377Z,32.42
2022-12-04T05:49:49.685Z,32.34
2022-12-04T05:52:19.013Z,32.42
2022-12-04T05:54:46.960Z,32.44
2022-12-04T05:57:15.000Z,32.34
2022-12-04T05:59:43.068Z,32.41
2022-12-04T06:02:11.076Z,32.40
2022-12-04T06:04:39.278Z,32.27
2022-12-04T06:07:07.208Z,32.26
2022-12-04T06:09:36.542Z,32.30
2022-12-04T06:12:06.982Z,32.18
2022-12-04T06:14:39.293Z,32.27
2022-12-04T06:17:08.314Z,32.32
2022-12-04T06:19:36.239Z,32.32
2022-12-04T06:22:04.871Z,32.22
2022-12-04T06:24:32.890Z,32.44
2022-12-04T06:27:26.849Z,32.36
2022-12-04T06:29:50.176Z,32.19
2022-12-04T06:32:21.814Z,32.36
2022-12-04T06:34:51.492Z,32.23
2022-12-04T06:37:19.770Z,32.32
2022-12-04T06:39:47.670Z,32.26
2022-12-04T06:42:17.146Z,32.36
2022-12-04T06:44:45.114Z,32.11
2022-12-04T06:47:13.139Z,31.99
2022-12-04T06:49:41.304Z,32.31
2022-12-04T06:52:09.401Z,32.24
2022-12-04T06:54:37.296Z,32.13
2022-12-04T06:57:05.424Z,32.31
2022-12-04T06:59:34.804Z,32.15
2022-12-04T07:02:05.106Z,32.26
2022-12-04T07:04:33.170Z,32.10
2022-12-04T07:07:01.144Z,32.36
2022-12-04T07:09:29.234Z,32.20
2022-12-04T07:11:57.226Z,32.17
2022-12-04T07:14:25.199Z,32.21
2022-12-04T07:16:54.514Z,32.21
2022-12-04T07:19:22.562Z,32.08
2022-12-04T07:21:52.542Z,32.04
2022-12-04T07:24:20.566Z,32.22
2022-12-04T07:26:48.659Z,32.14
2022-12-04T07:29:16.731Z,32.28
2022-12-04T07:31:45.392Z,32.21
2022-12-04T07:34:14.752Z,32.16
2022-12-04T07:36:42.697Z,32.08
2022-12-04T07:39:10.930Z,32.17
2022-12-04T07:41:38.908Z,32.21
2022-12-04T07:44:09.197Z,32.31
2022-12-04T07:46:37.264Z,32.15
2022-12-04T07:49:05.198Z,32.05
2022-12-04T07:51:34.477Z,32.18
2022-12-04T07:54:04.930Z,32.21
2022-12-04T07:56:33.520Z,32.25
2022-12-04T07:59:01.761Z,32.14
2022-12-04T08:01:29.888Z,32.09
2022-12-04T08:03:59.739Z,32.16
2022-12-04T08:06:29.870Z,32.25
2022-12-04T08:09:01.523Z,32.17
2022-12-04T08:11:33.285Z,32.11
2022-12-04T08:14:03.761Z,32.18
2022-12-04T08:16:33.930Z,32.03
2022-12-04T08:19:02.117Z,32.15
2022-12-04T08:21:32.713Z,32.22
2022-12-04T08:24:02.700Z,31.95
2022-12-04T08:26:31.748Z,31.98
2022-12-04T08:29:01.299Z,31.97
2022-12-04T08:31:32.694Z,32.27
2022-12-04T08:34:03.197Z,32.03
2022-12-04T08:36:31.638Z,32.03
2022-12-04T08:38:59.666Z,32.27
2022-12-04T08:41:29.284Z,32.31
2022-12-04T08:43:58.038Z,32.16
2022-12-04T08:46:27.505Z,32.18
2022-12-04T08:48:56.240Z,32.47
2022-12-04T08:51:26.443Z,32.94
2022-12-04T08:53:56.499Z,33.21
2022-12-04T08:56:25.054Z,33.02
2022-12-04T08:58:56.396Z,34.74
2022-12-04T09:01:25.810Z,34.09
2022-12-04T09:03:54.199Z,33.76
2022-12-04T09:06:22.736Z,34.22
2022-12-04T09:08:54.260Z,33.95
2022-12-04T09:11:23.610Z,34.02
2022-12-04T09:13:52.989Z,34.41
2022-12-04T09:16:24.508Z,34.29
2022-12-04T09:18:53.253Z,34.13
2022-12-04T09:21:22.367Z,34.18
2022-12-04T09:23:50.855Z,34.15
2022-12-04T09:26:21.693Z,34.13
2022-12-04T09:28:50.675Z,34.48
2022-12-04T09:31:20.328Z,34.48
2022-12-04T09:33:50.303Z,34.42
2022-12-04T09:36:18.596Z,34.60
2022-12-04T09:38:48.239Z,34.41
2022-12-04T09:41:30.093Z,34.73
2022-12-04T09:44:02.247Z,34.67
2022-12-04T09:46:32.775Z,34.57
2022-12-04T09:49:08.044Z,34.41
2022-12-04T09:51:38.505Z,34.42
2022-12-04T09:54:14.578Z,34.41
2022-12-04T09:56:45.218Z,34.50
2022-12-04T09:59:18.025Z,34.49
2022-12-04T10:01:49.125Z,34.42
2022-12-04T10:04:21.717Z,34.20
2022-12-04T10:06:57.175Z,34.13
2022-12-04T10:09:32.989Z,36.44
2022-12-04T10:12:14.385Z,35.15
2022-12-04T10:14:54.385Z,34.76
2022-12-04T10:17:39.327Z,34.89
2022-12-04T10:20:21.526Z,35.27
2022-12-04T10:22:59.591Z,35.31
2022-12-04T10:25:30.013Z,35.54
2022-12-04T10:28:03.989Z,35.75
2022-12-04T10:30:35.983Z,35.50
2022-12-04T10:33:15.210Z,35.30
2022-12-04T10:35:47.226Z,35.33
2022-12-04T10:38:27.374Z,35.49
2022-12-04T10:41:00.675Z,35.41
2022-12-04T10:43:37.541Z,35.41
2022-12-04T10:46:07.002Z,35.64
2022-12-04T10:48:38.604Z,35.65
2022-12-04T10:51:13.998Z,35.44
2022-12-04T10:53:42.427Z,35.87
2022-12-04T10:56:12.951Z,36.01
2022-12-04T10:58:41.190Z,35.81
2022-12-04T11:01:12.616Z,35.96
2022-12-04T11:03:40.918Z,35.55
2022-12-04T11:06:11.864Z,35.90
2022-12-04T11:08:42.901Z,35.70
2022-12-04T11:11:13.736Z,35.62
2022-12-04T11:13:42.602Z,35.73
2022-12-04T11:16:33.243Z,35.72
2022-12-04T11:19:04.530Z,35.61
2022-12-04T11:21:34.102Z,35.76
2022-12-04T11:24:02.852Z,35.56
2022-12-04T11:26:33.749Z,35.37
2022-12-04T11:29:03.243Z,35.39
2022-12-04T11:31:32.347Z,36.16
2022-12-04T11:34:03.903Z,35.77
2022-12-04T11:36:36.318Z,35.43
2022-12-04T11:39:08.593Z,35.65
2022-12-04T11:41:36.374Z,35.81
2022-12-04T11:44:07.183Z,35.60
2022-12-04T11:46:35.645Z,35.68
2022-12-04T11:49:04.264Z,36.07
2022-12-04T11:51:49.949Z,35.88
2022-12-04T11:54:30.220Z,36.02
2022-12-04T11:57:13.032Z,35.89
2022-12-04T11:59:56.458Z,35.83
2022-12-04T12:02:43.507Z,36.99
2022-12-04T12:05:25.444Z,37.54
2022-12-04T12:08:06.618Z,37.13
2022-12-04T12:10:44.559Z,37.14
2022-12-04T12:13:23.417Z,37.48
2022-12-04T12:16:01.636Z,37.36
2022-12-04T12:18:47.892Z,37.37
2022-12-04T12:21:23.232Z,37.50
2022-12-04T12:24:16.750Z,37.50
2022-12-04T12:26:51.222Z,37.76
2022-12-04T12:29:35.519Z,37.53
2022-12-04T12:32:17.211Z,37.40
2022-12-04T12:34:47.427Z,37.72
2022-12-04T12:37:22.613Z,39.28
2022-12-04T12:40:00.570Z,38.47
2022-12-04T12:42:34.730Z,37.90
2022-12-04T12:45:07.864Z,38.02
2022-12-04T12:47:42.095Z,37.99
2022-12-04T12:50:17.674Z,38.50
2022-12-04T12:52:52.891Z,38.20
2022-12-04T12:55:27.015Z,38.18
2022-12-04T12:58:05.920Z,38.24
2022-12-04T13:00:40.618Z,38.33
2022-12-04T13:03:27.433Z,39.03
2022-12-04T13:06:00.737Z,38.37
2022-12-04T13:08:31.521Z,38.87
2022-12-04T13:11:06.765Z,39.13
2022-12-04T13:13:37.402Z,39.24
2022-12-04T13:16:10.727Z,38.53
2022-12-04T13:18:47.348Z,38.89
2022-12-04T13:21:30.983Z,38.93
2022-12-04T13:24:21.634Z,38.53
2022-12-04T13:26:57.337Z,38.72
2022-12-04T13:29:42.371Z,38.58
2022-12-04T13:32:34.545Z,38.50
2022-12-04T13:35:10.203Z,38.58
2022-12-04T13:37:59.890Z,38.53
2022-12-04T13:40:33.585Z,38.56
2022-12-04T13:43:39.728Z,38.74
2022-12-04T13:46:26.518Z,38.48
2022-12-04T13:48:54.744Z,38.17
2022-12-04T13:51:37.229Z,38.54
2022-12-04T13:54:21.558Z,38.41
2022-12-04T13:56:52.524Z,38.59
2022-12-04T13:59:24.795Z,38.41
2022-12-04T14:01:55.737Z,38.71
2022-12-04T14:04:29.626Z,38.37
2022-12-04T14:07:01.450Z,38.46
2022-12-04T14:09:35.003Z,38.79
2022-12-04T14:12:07.061Z,38.89
2022-12-04T14:14:42.301Z,38.97
2022-12-04T14:17:20.853Z,39.07
2022-12-04T14:19:54.410Z,39.25
2022-12-04T14:22:31.454Z,39.16
2022-12-04T14:25:23.111Z,39.00
2022-12-04T14:27:53.539Z,39.25
2022-12-04T14:30:24.809Z,39.01
2022-12-04T14:33:01.507Z,39.06
2022-12-04T14:35:30.289Z,39.00
2022-12-04T14:38:01.696Z,39.29
2022-12-04T14:40:35.386Z,39.04
2022-12-04T14:43:03.756Z,39.11
2022-12-04T14:45:44.182Z,38.97
2022-12-04T14:48:36.203Z,39.25
2022-12-04T14:51:14.809Z,39.05
2022-12-04T14:53:48.518Z,39.20
2022-12-04T14:56:27.318Z,39.11
2022-12-04T14:58:56.286Z,39.16
2022-12-04T15:01:29.771Z,38.82
2022-12-04T15:04:05.176Z,38.64
2022-12-04T15:06:34.874Z,38.82
2022-12-04T15:09:18.413Z,38.79
2022-12-04T15:12:05.279Z,38.82
2022-12-04T15:14:41.897Z,38.69
2022-12-04T15:17:12.133Z,38.68
2022-12-04T15:19:41.684Z,38.73
2022-12-04T15:22:19.567Z,38.92
2022-12-04T15:24:47.721Z,38.86
2022-12-04T15:27:17.580Z,38.87
2022-12-04T15:29:48.388Z,38.87
2022-12-04T15:32:21.542Z,38.88
2022-12-04T15:34:55.354Z,38.94
2022-12-04T15:37:26.925Z,39.14
2022-12-04T15:39:55.471Z,39.05
2022-12-04T15:42:28.299Z,38.92
2022-12-04T15:45:01.138Z,38.64
2022-12-04T15:47:31.389Z,38.85
2022-12-04T15:50:11.531Z,38.68
2022-12-04T15:52:49.045Z,38.44
2022-12-04T15:55:20.093Z,38.58
2022-12-04T15:57:53.616Z,38.41
2022-12-04T16:00:28.433Z,38.77
2022-12-04T16:02:58.848Z,38.77
2022-12-04T16:05:36.564Z,38.74
2022-12-04T16:08:24.357Z,38.45
2022-12-04T16:11:01.182Z,38.38
2022-12-04T16:13:31.939Z,37.87
2022-12-04T16:16:01.216Z,38.37
2022-12-04T16:18:29.936Z,37.99
2022-12-04T16:20:59.350Z,37.88
2022-12-04T16:23:28.391Z,37.96
2022-12-04T16:25:56.781Z,38.01
2022-12-04T16:28:25.050Z,38.08
2022-12-04T16:30:53.632Z,37.97
2022-12-04T16:33:21.684Z,38.00
2022-12-04T16:35:50.202Z,38.12
2022-12-04T16:38:19.544Z,37.93
2022-12-04T16:40:48.579Z,38.18
2022-12-04T16:43:18.175Z,37.98
2022-12-04T16:45:48.694Z,37.87
2022-12-04T16:48:16.815Z,37.71
2022-12-04T16:50:45.938Z,38.17
2022-12-04T16:53:17.607Z,37.74
2022-12-04T16:55:48.961Z,38.44
2022-12-04T16:58:20.914Z,37.72
2022-12-04T17:00:53.202Z,37.92
2022-12-04T17:03:26.074Z,38.17
2022-12-04T17:05:54.346Z,37.89
2022-12-04T17:08:22.797Z,38.18
2022-12-04T17:10:52.701Z,37.74
2022-12-04T17:13:21.433Z,38.73
2022-12-04T17:15:50.323Z,39.06
2022-12-04T17:18:21.302Z,39.50
2022-12-04T17:20:52.396Z,39.86
2022-12-04T17:23:20.363Z,40.96
2022-12-04T17:25:48.413Z,42.46
2022-12-04T17:28:17.981Z,43.43
2022-12-04T17:30:47.072Z,41.33
2022-12-04T17:33:15.313Z,45.81
2022-12-04T17:35:44.690Z,45.99
2022-12-04T17:38:12.634Z,45.83
2022-12-04T17:40:40.553Z,45.38
2022-12-04T17:43:08.496Z,43.90
2022-12-04T17:45:40.832Z,43.50
2022-12-04T17:48:08.779Z,43.21
2022-12-04T17:50:38.992Z,42.70
2022-12-04T17:53:09.918Z,42.91
2022-12-04T17:55:37.880Z,43.07
2022-12-04T17:58:05.823Z,42.94
2022-12-04T18:00:33.834Z,43.15
2022-12-04T18:03:03.289Z,42.86
2022-12-04T18:05:31.311Z,43.46
2022-12-04T18:07:59.341Z,43.87
2022-12-04T18:10:27.332Z,44.03
2022-12-04T18:12:55.277Z,43.50
2022-12-04T18:15:23.455Z,43.45
2022-12-04T18:17:51.347Z,43.13
2022-12-04T18:20:20.900Z,43.36
2022-12-04T18:22:48.975Z,43.04
2022-12-04T18:25:16.989Z,42.73
2022-12-04T18:27:44.967Z,42.64
2022-12-04T18:30:13.561Z,42.46
2022-12-04T18:32:41.534Z,42.22
2022-12-04T18:35:11.447Z,42.16
2022-12-04T18:37:40.775Z,42.11
2022-12-04T18:40:09.899Z,42.03
2022-12-04T18:42:37.906Z,41.79
2022-12-04T18:45:06.601Z,41.89
2022-12-04T18:47:36.559Z,41.66
2022-12-04T18:50:04.737Z,41.82
2022-12-04T18:52:36.234Z,41.43
2022-12-04T18:55:06.532Z,41.31
2022-12-04T18:57:34.585Z,41.67
2022-12-04T19:00:02.527Z,41.70
2022-12-04T19:02:30.828Z,41.72
2022-12-04T19:04:58.799Z,41.67
2022-12-04T19:07:26.664Z,41.43
2022-12-04T19:10:10.714Z,41.25
2022-12-04T19:12:44.866Z,41.27
2022-12-04T19:15:12.921Z,41.28
2022-12-04T19:17:43.437Z,41.19
2022-12-04T19:20:16.242Z,41.14
2022-12-04T19:22:44.668Z,40.83
2022-12-04T19:25:12.616Z,41.04
2022-12-04T19:27:40.568Z,40.85
2022-12-04T19:30:11.084Z,40.90
2022-12-04T19:32:39.101Z,40.91
2022-12-04T19:35:07.500Z,41.09
2022-12-04T19:37:41.214Z,41.00
2022-12-04T19:40:10.667Z,40.99
2022-12-04T19:42:38.673Z,41.17
2022-12-04T19:45:07.349Z,41.22
2022-12-04T19:47:36.873Z,41.21
2022-12-04T19:50:05.494Z,41.02
2022-12-04T19:52:34.711Z,41.11
2022-12-04T19:55:02.752Z,40.96
2022-12-04T19:57:30.804Z,40.96
2022-12-04T20:00:01.083Z,40.89
2022-12-04T20:02:29.302Z,40.93
2022-12-04T20:04:58.571Z,41.02
2022-12-04T20:07:26.497Z,40.80
2022-12-04T20:09:56.067Z,40.70
2022-12-04T20:12:24.756Z,41.10
2022-12-04T20:14:52.804Z,40.40
2022-12-04T20:17:20.831Z,40.27
2022-12-04T20:19:48.787Z,40.33
2022-12-04T20:22:18.103Z,40.38
2022-12-04T20:24:46.097Z,40.22
2022-12-04T20:27:13.990Z,40.14
2022-12-04T20:29:42.065Z,40.21
2022-12-04T20:32:10.031Z,40.03
2022-12-04T20:34:43.340Z,40.22
2022-12-04T20:37:11.643Z,40.05
2022-12-04T20:39:40.909Z,40.19
2022-12-04T20:42:08.862Z,40.40
2022-12-04T20:44:37.048Z,40.47
2022-12-04T20:47:04.958Z,40.19
2022-12-04T20:49:32.936Z,40.09
2022-12-04T20:52:00.908Z,39.96
2022-12-04T20:54:28.847Z,40.45
2022-12-04T20:56:58.044Z,40.28
2022-12-04T20:59:26.390Z,40.07
2022-12-04T21:01:54.896Z,40.18
2022-12-04T21:04:23.567Z,40.18
2022-12-04T21:06:51.511Z,40.13
2022-12-04T21:09:22.067Z,40.14
2022-12-04T21:11:54.073Z,39.98
2022-12-04T21:14:42.429Z,40.02
2022-12-04T21:17:16.748Z,39.96
2022-12-04T21:19:44.866Z,40.12
2022-12-04T21:22:12.931Z,39.72
2022-12-04T21:24:42.282Z,39.94
2022-12-04T21:27:13.389Z,39.91
2022-12-04T21:29:46.956Z,39.92
2022-12-04T21:32:15.182Z,39.77
2022-12-04T21:34:43.078Z,40.00
2022-12-04T21:37:11.275Z,39.90
2022-12-04T21:39:39.172Z,39.82
2022-12-04T21:42:24.291Z,40.02
2022-12-04T21:44:53.647Z,39.94
2022-12-04T21:47:21.593Z,40.02
2022-12-04T21:49:49.614Z,39.85
2022-12-04T21:52:18.186Z,39.92
2022-12-04T21:54:46.112Z,39.79
2022-12-04T21:57:14.046Z,39.93
2022-12-04T21:59:42.027Z,39.82
2022-12-04T22:02:12.304Z,39.87
2022-12-04T22:04:40.341Z,39.76
2022-12-04T22:07:08.325Z,39.95
2022-12-04T22:09:37.758Z,39.86
2022-12-04T22:12:20.234Z,39.89
2022-12-04T22:14:54.230Z,39.67
2022-12-04T22:17:23.568Z,39.94
2022-12-04T22:19:51.531Z,39.72
2022-12-04T22:22:19.459Z,39.72
2022-12-04T22:24:48.824Z,39.78
2022-12-04T22:27:17.491Z,39.78
2022-12-04T22:29:52.524Z,39.73
2022-12-04T22:32:20.673Z,39.63
2022-12-04T22:34:50.360Z,39.67
2022-12-04T22:37:18.508Z,40.00
2022-12-04T22:39:46.458Z,39.80
2022-12-04T22:42:14.407Z,39.79
2022-12-04T22:44:42.318Z,39.73
2022-12-04T22:47:10.604Z,39.65
2022-12-04T22:49:38.593Z,39.59
2022-12-04T22:52:07.925Z,39.69
2022-12-04T22:54:35.901Z,40.00
2022-12-04T22:57:03.882Z,39.82
2022-12-04T22:59:32.031Z,39.80
2022-12-04T23:02:01.120Z,39.69
2022-12-04T23:04:29.689Z,39.53
2022-12-04T23:06:57.720Z,39.75
2022-12-04T23:09:27.921Z,39.66
2022-12-04T23:11:57.233Z,39.79
2022-12-04T23:14:27.084Z,39.77
2022-12-04T23:16:56.261Z,39.82
2022-12-04T23:19:24.745Z,39.81
2022-12-04T23:21:56.911Z,39.66
2022-12-04T23:24:27.103Z,39.78
2022-12-04T23:26:55.041Z,39.82
2022-12-04T23:29:51.637Z,39.72
2022-12-04T23:32:10.970Z,39.81
2022-12-04T23:34:39.854Z,39.82
2022-12-04T23:37:07.864Z,39.81
2022-12-04T23:39:37.160Z,39.48
2022-12-04T23:42:05.272Z,39.39
2022-12-04T23:44:33.382Z,39.47
2022-12-04T23:47:04.148Z,39.20
2022-12-04T23:49:32.282Z,39.26
2022-12-04T23:52:00.178Z,39.12
2022-12-04T23:54:30.284Z,39.15
2022-12-04T23:56:59.705Z,39.03
2022-12-04T23:59:27.875Z,39.04
